Portada
METAR-TAF:

METAR-TAF

Aeroports :

Satu Mare, Romania

latitud: 47-48N, longitud: 022-53E, altitud: 123 m

Observació

L'informe es va fer fa 37 minuts, a les 14:00 UTC
Vent 8 kt del Nord/Nord-Est, variant entre Nord-Oest i Nord-Est
Temperatura 31°C
Humitat 38%
Pressió 1015 hPa
Visibilitat 10 km o més
sense núvols per sota de 1500 mi sense presència de cumulonimbus.

METAR: LRSM 181400Z 02008KT 320V050 CAVOK 31/15 Q1015

Hora: 17:37 (14:37 UTC)

Pronòstic

L'informe es va fer fa 3 hores i 37 minuts, a les 11:00 UTC
Pronòstic vàlid del 18 a les 12 UTC al 18 a les 21 UTC
Vent 8 kt del Est/Nord-Est
Visibilitat 10 km o més
Núvols disperses a una alçada de 4500 ft
Temporalment
l' 18 a les 13 UTC al 18 a les 16 UTC
Núvols disperses a una alçada de 4000 ft, Cumulonimbus.

TAF: LRSM 181100Z 1812/1821 06008KT 9999 SCT045 TEMPO 1813/1816 SCT040CB

Observacions i pronòstics meteorològics de més de 4000 aeroports (METAR i TAF).

Les estacions disponibles són els punts grocs i vermells al mapa.

Posi el ratolí al punt desitjat per veure el nom de l'estació.

Feu clic per veure les observacions i els pronòstics meteorològics.

Per canviar el mapa: feu clic els botons verds amb una creu de color negre per apropar; al botó verd amb un guió per allunyar la imatge; o en les fletxes verdes per a mapes adjacents.


METAR-TAF: